CST,Max TemperatureF,Mean TemperatureF,Min TemperatureF,Max Dew PointF,MeanDew PointF,Min DewpointF,Max Humidity, Mean Humidity, Min Humidity, Max Sea Level PressureIn, Mean Sea Level PressureIn, Min Sea Level PressureIn, Max VisibilityMiles, Mean VisibilityMiles, Min VisibilityMiles, Max Wind SpeedMPH, Mean Wind SpeedMPH, Max Gust SpeedMPH,PrecipitationIn, CloudCover, Events, WindDirDegrees
2012-1-1,68,58,48,64,52,32,96,73,34,30.40,30.23,30.11,10,9,6,20,9,28,0.00,5,,274
2012-1-2,55,45,35,32,23,11,82,50,17,30.54,30.46,30.41,10,10,10,21,6,30,0.00,0,,323
2012-1-3,50,39,28,23,14,-1,72,44,14,30.60,30.50,30.40,10,10,10,7,4,,0.00,0,,353
2012-1-4,63,44,25,47,36,20,89,70,45,30.42,30.34,30.26,10,10,10,8,2,,0.00,2,,188
2012-1-5,69,54,39,52,42,39,100,84,35,30.30,30.25,30.15,10,6,0,12,1,20,0.00,3,Fog,290
2012-1-6,71,56,42,56,50,39,100,89,57,30.19,30.12,30.05,10,6,0,8,1,,0.01,4,Fog,200
2012-1-7,71,60,48,60,53,48,100,92,57,30.13,30.07,30.03,10,5,0,9,2,,0.02,5,Fog,176
2012-1-8,75,66,57,64,61,57,100,94,59,30.16,30.10,30.05,10,4,0,10,4,21,1.14,6,Fog-Rain-Thunderstorm,167
2012-1-9,71,65,59,64,61,57,100,93,68,30.13,30.08,29.99,10,4,0,12,2,18,0.23,6,Fog-Rain,146
2012-1-10,69,61,51,65,61,46,100,89,78,30.00,29.84,29.73,10,8,2,17,5,25,1.40,8,Rain,158
2012-1-11,57,50,43,48,44,41,97,82,72,29.83,29.77,29.73,10,10,7,10,7,18,0.00,5,,247
2012-1-12,50,42,33,48,31,17,97,64,29,30.19,29.95,29.73,10,9,3,26,8,36,0.01,2,,312
2012-1-13,48,38,28,25,18,12,81,54,24,30.33,30.26,30.19,10,10,10,10,3,,0.00,0,,301
2012-1-14,61,42,24,29,23,17,91,54,18,30.40,30.34,30.29,10,10,10,13,3,22,0.00,0,,240
2012-1-15,66,48,30,38,32,28,92,58,26,30.47,30.39,30.36,10,10,10,10,2,,0.00,1,,165
2012-1-16,72,62,52,58,53,42,84,74,59,30.35,30.24,30.14,10,10,10,17,10,29,0.00,7,,165
2012-1-17,66,60,51,65,62,40,100,94,66,30.15,30.08,30.00,10,6,0,14,7,21,2.15,8,Fog-Rain-Thunderstorm,217
2012-1-18,57,47,37,37,32,26,93,64,30,30.27,30.19,30.10,10,10,10,13,7,17,0.00,0,,7
2012-1-19,63,49,35,58,46,33,92,81,63,30.13,30.04,29.98,10,10,10,12,3,,0.00,5,,163
2012-1-20,75,68,60,66,63,57,100,89,64,30.00,29.95,29.88,10,7,0,16,5,22,0.35,7,Fog-Rain,192
2012-1-21,78,70,62,66,64,59,94,83,58,29.99,29.95,29.90,10,10,8,10,7,17,0.00,7,,214
2012-1-22,75,68,62,70,65,59,100,91,66,29.98,29.93,29.87,10,6,0,18,5,25,0.19,8,Fog-Rain-Thunderstorm,170
2012-1-23,72,64,54,68,57,34,94,74,30,30.08,29.97,29.89,10,8,1,18,9,28,1.07,5,Rain-Thunderstorm,274
2012-1-24,66,57,48,50,41,34,72,56,37,30.18,30.12,30.08,10,10,10,9,5,,0.00,4,Rain,66
2012-1-25,77,68,59,67,62,49,100,86,60,30.07,29.96,29.85,10,8,2,24,10,36,1.15,7,Rain-Thunderstorm,131
2012-1-26,69,60,51,62,57,46,100,88,60,29.96,29.87,29.77,10,8,1,15,5,24,2.24,7,Rain-Thunderstorm,284
2012-1-27,64,54,41,47,41,32,96,73,31,30.14,30.05,29.96,10,10,4,13,6,,0.00,2,,293
2012-1-28,63,51,39,47,35,25,96,60,31,30.39,30.26,30.12,10,10,10,15,5,21,0.00,0,,345
2012-1-29,62,48,35,31,24,8,79,50,13,30.48,30.41,30.37,10,10,10,8,4,,0.00,0,,29
2012-1-30,64,49,34,44,35,27,86,62,29,30.42,30.35,30.29,10,10,9,9,2,,0.00,0,,155
2012-1-31,73,62,52,63,56,44,94,78,53,30.29,30.22,30.15,10,10,9,16,6,,0.00,4,Rain,155